Sacramento, California
Traffic Map
Current Weather Conditions
Sacramento, California
Clear
Clear
66°
Feels Like: 66°
Wind Chill: 66° Ceiling: Unl
Heat Index: 66° Visibility: 10mi
Dew Point: 54° Wind: 5mph
Humidity: 65% Direction: 260° (W)
Pressure: 29.97in Gusts: 0mph
Raw Report DataKSAC 271653Z AUTO 26004KT 10SM CLR 19/12 A2997 RMK AO2 SLP148 T01890122
Traffic Incident Summary
Active as of:
Severity:
Category:
InformationThere was an issue retrieving the traffic information for this location. Please try a different location or try again shortly.
Advertisements
Track Severe Weather on mobile